createdAt,value
2018-10-07T05:00:26.278Z,10.72
2018-10-07T05:00:59.076Z,10.23
2018-10-07T05:01:31.736Z,10.63
2018-10-07T05:02:04.345Z,9.83
2018-10-07T05:02:37.016Z,10.50
2018-10-07T05:03:09.651Z,11.05
2018-10-07T05:03:42.324Z,11.00
2018-10-07T05:04:14.967Z,10.90
2018-10-07T05:04:47.621Z,10.48
2018-10-07T05:05:20.327Z,9.98
2018-10-07T05:05:53.096Z,10.30
2018-10-07T05:06:27.971Z,9.55
2018-10-07T05:07:00.747Z,10.65
2018-10-07T05:07:33.473Z,11.45
2018-10-07T05:08:06.592Z,9.75
2018-10-07T05:08:39.293Z,10.93
2018-10-07T05:09:11.871Z,10.35
2018-10-07T05:09:44.551Z,11.57
2018-10-07T05:10:56.200Z,10.43
2018-10-07T05:11:29.161Z,9.65
2018-10-07T05:12:04.138Z,11.48
2018-10-07T05:12:36.938Z,9.90
2018-10-07T05:13:09.583Z,11.45
2018-10-07T05:13:43.989Z,11.30
2018-10-07T05:14:17.552Z,9.78
2018-10-07T05:14:50.214Z,10.68
2018-10-07T05:15:22.904Z,11.45
2018-10-07T05:15:56.812Z,10.90
2018-10-07T05:16:32.751Z,10.90
2018-10-07T05:17:05.477Z,10.85
2018-10-07T05:17:38.201Z,9.83
2018-10-07T05:18:10.784Z,11.00
2018-10-07T05:18:43.700Z,10.78
2018-10-07T05:19:16.368Z,10.82
2018-10-07T05:19:49.004Z,10.70
2018-10-07T05:20:21.650Z,11.10
2018-10-07T05:20:54.766Z,11.10
2018-10-07T05:21:27.609Z,10.00
2018-10-07T05:22:00.492Z,10.98
2018-10-07T05:22:33.107Z,10.70
2018-10-07T05:23:05.708Z,11.10
2018-10-07T05:23:38.359Z,10.25
2018-10-07T05:24:10.966Z,10.98
2018-10-07T05:24:43.556Z,11.55
2018-10-07T05:25:16.146Z,11.83
2018-10-07T05:25:48.779Z,10.72
2018-10-07T05:26:21.424Z,10.10
2018-10-07T05:26:54.039Z,10.50
2018-10-07T05:27:26.638Z,11.48
2018-10-07T05:27:59.228Z,9.73
2018-10-07T05:28:31.859Z,11.28
2018-10-07T05:29:04.501Z,10.40
2018-10-07T05:29:37.100Z,11.25
2018-10-07T05:30:09.695Z,10.78
2018-10-07T05:30:42.307Z,10.75
2018-10-07T05:31:14.958Z,10.53
2018-10-07T05:31:47.542Z,10.85
2018-10-07T05:32:20.123Z,10.82
2018-10-07T05:32:52.778Z,10.35
2018-10-07T05:33:25.423Z,11.20
2018-10-07T05:33:58.033Z,10.78
2018-10-07T05:34:30.597Z,11.35
2018-10-07T05:35:03.222Z,10.68
2018-10-07T05:35:35.835Z,10.15
2018-10-07T05:36:08.447Z,11.65
2018-10-07T05:36:41.151Z,11.57
2018-10-07T05:37:13.728Z,10.82
2018-10-07T05:37:46.343Z,11.55
2018-10-07T05:38:18.964Z,11.53
2018-10-07T05:38:51.549Z,10.32
2018-10-07T05:39:24.123Z,10.68
2018-10-07T05:39:56.745Z,10.43
2018-10-07T05:40:29.384Z,10.58
2018-10-07T05:41:01.982Z,10.55
2018-10-07T05:41:34.602Z,12.13
2018-10-07T05:42:07.239Z,11.48
2018-10-07T05:42:39.813Z,11.38
2018-10-07T05:43:12.399Z,10.40
2018-10-07T05:43:45.028Z,11.63
2018-10-07T05:44:17.626Z,11.25
2018-10-07T05:44:50.241Z,10.63
2018-10-07T05:45:22.912Z,10.15
2018-10-07T05:45:55.479Z,11.20
2018-10-07T05:46:28.087Z,10.88
2018-10-07T05:47:00.741Z,10.40
2018-10-07T05:47:33.379Z,10.80
2018-10-07T05:48:06.090Z,11.10
2018-10-07T05:48:38.664Z,10.38
2018-10-07T05:49:11.324Z,11.33
2018-10-07T05:49:43.896Z,10.60
2018-10-07T05:50:16.487Z,10.70
2018-10-07T05:50:49.122Z,10.95
2018-10-07T05:51:21.706Z,11.68
2018-10-07T05:51:54.279Z,10.60
2018-10-07T05:52:26.891Z,11.88
2018-10-07T05:52:59.513Z,11.78
2018-10-07T05:53:32.075Z,10.23
2018-10-07T05:54:04.652Z,11.20
2018-10-07T05:54:37.363Z,10.25
2018-10-07T05:55:10.036Z,10.88
2018-10-07T05:55:42.704Z,10.55
2018-10-07T05:56:15.335Z,10.45
2018-10-07T05:56:47.949Z,10.88
2018-10-07T05:57:20.612Z,10.35
2018-10-07T05:57:57.727Z,11.33
2018-10-07T05:58:30.772Z,10.90
2018-10-07T05:59:03.493Z,11.40
2018-10-07T05:59:36.204Z,10.90
2018-10-07T06:00:10.396Z,12.00
2018-10-07T06:00:43.593Z,10.90
2018-10-07T06:01:28.908Z,10.50
2018-10-07T06:02:03.622Z,10.98
2018-10-07T06:02:37.648Z,11.68
2018-10-07T06:04:27.103Z,11.10
2018-10-07T06:05:00.995Z,11.20
2018-10-07T06:05:33.714Z,11.20
2018-10-07T06:06:07.168Z,11.03
2018-10-07T06:06:39.870Z,11.12
2018-10-07T06:07:12.581Z,11.25
2018-10-07T06:07:45.272Z,10.45
2018-10-07T06:08:18.647Z,11.08
2018-10-07T06:08:51.726Z,11.30
2018-10-07T06:09:27.047Z,12.05
2018-10-07T06:09:59.651Z,11.88
2018-10-07T06:10:32.275Z,9.85
2018-10-07T06:11:04.944Z,10.95
2018-10-07T06:11:37.551Z,12.33
2018-10-07T06:12:10.181Z,12.20
2018-10-07T06:12:42.820Z,11.85
2018-10-07T06:13:15.447Z,11.30
2018-10-07T06:13:48.101Z,11.03
2018-10-07T06:14:32.347Z,10.78
2018-10-07T06:15:42.673Z,12.40
2018-10-07T06:16:15.319Z,12.18
2018-10-07T06:16:47.948Z,11.05
2018-10-07T06:17:20.563Z,10.82
2018-10-07T06:17:53.196Z,11.10
2018-10-07T06:18:25.794Z,11.12
2018-10-07T06:18:58.403Z,11.12
2018-10-07T06:19:31.467Z,12.53
2018-10-07T06:20:04.102Z,12.00
2018-10-07T06:20:36.784Z,12.20
2018-10-07T06:21:09.431Z,13.83
2018-10-07T06:21:42.148Z,12.05
2018-10-07T06:22:14.747Z,13.03
2018-10-07T06:22:47.373Z,10.88
2018-10-07T06:23:20.036Z,12.00
2018-10-07T06:23:52.637Z,12.40
2018-10-07T06:24:25.339Z,12.60
2018-10-07T06:24:57.999Z,11.30
2018-10-07T06:25:30.648Z,12.55
2018-10-07T06:26:03.293Z,12.55
2018-10-07T06:26:35.912Z,11.88
2018-10-07T06:27:08.612Z,11.05
2018-10-07T06:27:41.226Z,12.18
2018-10-07T06:28:13.833Z,11.68
2018-10-07T06:28:46.497Z,11.80
2018-10-07T06:29:19.101Z,10.90
2018-10-07T06:29:51.789Z,12.00
2018-10-07T06:30:24.450Z,12.05
2018-10-07T06:30:57.051Z,12.78
2018-10-07T06:31:29.691Z,12.80
2018-10-07T06:32:02.378Z,13.30
2018-10-07T06:32:35.036Z,10.88
2018-10-07T06:33:07.644Z,11.78
2018-10-07T06:33:40.307Z,12.73
2018-10-07T06:34:12.917Z,12.65
2018-10-07T06:34:45.570Z,11.43
2018-10-07T06:35:18.204Z,12.85
2018-10-07T06:35:50.816Z,12.20
2018-10-07T06:36:23.420Z,12.25
2018-10-07T06:36:56.047Z,12.70
2018-10-07T06:37:28.673Z,11.95
2018-10-07T06:38:01.356Z,12.50
2018-10-07T06:38:34.093Z,12.93
2018-10-07T06:39:06.703Z,13.00
2018-10-07T06:39:39.333Z,12.73
2018-10-07T06:40:12.028Z,12.50
2018-10-07T06:40:44.650Z,11.48
2018-10-07T06:41:17.294Z,12.98
2018-10-07T06:41:50.563Z,11.50
2018-10-07T06:42:23.174Z,11.80
2018-10-07T06:42:55.783Z,11.90
2018-10-07T06:43:28.465Z,12.82
2018-10-07T06:44:01.141Z,13.58
2018-10-07T06:44:33.780Z,12.20
2018-10-07T06:45:06.465Z,12.13
2018-10-07T06:45:39.139Z,13.08
2018-10-07T06:46:11.804Z,12.85
2018-10-07T06:46:44.890Z,11.68
2018-10-07T06:47:17.515Z,12.15
2018-10-07T06:47:50.111Z,11.68
2018-10-07T06:48:22.731Z,13.65
2018-10-07T06:48:55.374Z,13.40
2018-10-07T06:49:28.021Z,13.32
2018-10-07T06:50:00.612Z,13.98
2018-10-07T06:50:33.210Z,12.70
2018-10-07T06:51:05.921Z,13.93
2018-10-07T06:51:38.544Z,14.10
2018-10-07T06:52:11.203Z,13.30
2018-10-07T06:52:43.874Z,13.00
2018-10-07T06:53:16.510Z,13.25
2018-10-07T06:53:49.100Z,14.10
2018-10-07T06:54:21.793Z,13.32
2018-10-07T06:54:54.484Z,13.20
2018-10-07T06:55:27.095Z,12.35
2018-10-07T06:55:59.952Z,13.38
2018-10-07T06:56:32.567Z,13.65
2018-10-07T06:57:05.258Z,13.35
2018-10-07T06:57:37.917Z,12.47
2018-10-07T06:58:10.539Z,12.70
2018-10-07T06:58:43.189Z,13.83
2018-10-07T06:59:15.825Z,13.40
2018-10-07T06:59:48.537Z,14.20
2018-10-07T07:00:21.085Z,13.98
2018-10-07T07:00:53.821Z,14.47
2018-10-07T07:01:26.385Z,14.70
2018-10-07T07:01:59.070Z,16.35
2018-10-07T07:02:31.721Z,14.40
2018-10-07T07:03:04.383Z,15.35
2018-10-07T07:03:36.971Z,15.95
2018-10-07T07:04:09.580Z,14.45
2018-10-07T07:04:42.172Z,15.25
2018-10-07T07:05:14.810Z,16.52
2018-10-07T07:05:47.407Z,16.67
2018-10-07T07:06:20.029Z,15.18
2018-10-07T07:06:52.596Z,16.45
2018-10-07T07:07:25.642Z,15.90
2018-10-07T07:07:58.219Z,15.75
2018-10-07T07:08:30.816Z,15.38
2018-10-07T07:09:05.044Z,15.83
2018-10-07T07:09:37.625Z,16.65
2018-10-07T07:10:10.226Z,16.80
2018-10-07T07:10:42.919Z,15.70
2018-10-07T07:11:15.500Z,17.05
2018-10-07T07:11:48.163Z,15.60
2018-10-07T07:12:20.780Z,16.35
2018-10-07T07:12:53.399Z,16.97
2018-10-07T07:13:26.001Z,17.45
2018-10-07T07:13:58.618Z,16.73
2018-10-07T07:14:31.202Z,17.48
2018-10-07T07:15:04.113Z,17.70
2018-10-07T07:15:36.737Z,17.67
2018-10-07T07:16:09.402Z,17.32
2018-10-07T07:16:41.985Z,17.45
2018-10-07T07:17:14.604Z,19.52
2018-10-07T07:17:47.180Z,18.67
2018-10-07T07:18:19.759Z,19.30
2018-10-07T07:18:52.359Z,16.42
2018-10-07T07:19:24.983Z,19.57
2018-10-07T07:19:57.785Z,19.52
2018-10-07T07:20:30.248Z,19.55
2018-10-07T07:21:02.865Z,19.05
2018-10-07T07:21:35.492Z,19.20
2018-10-07T07:22:08.115Z,18.67
2018-10-07T07:22:40.739Z,18.27
2018-10-07T07:23:13.388Z,20.57
2018-10-07T07:23:45.982Z,21.00
2018-10-07T07:24:18.643Z,22.40
2018-10-07T07:24:51.293Z,20.70
2018-10-07T07:25:23.878Z,20.40
2018-10-07T07:25:56.456Z,19.80
2018-10-07T07:26:29.090Z,20.97
2018-10-07T07:27:01.779Z,20.52
2018-10-07T07:27:34.392Z,20.32
2018-10-07T07:28:07.000Z,21.80
2018-10-07T07:28:39.584Z,23.83
2018-10-07T07:29:12.164Z,23.55
2018-10-07T07:29:44.781Z,22.80
2018-10-07T07:30:17.438Z,20.57
2018-10-07T07:30:50.061Z,20.52
2018-10-07T07:31:22.736Z,20.90
2018-10-07T07:31:55.313Z,19.85
2018-10-07T07:32:27.984Z,21.27
2018-10-07T07:33:00.606Z,21.25
2018-10-07T07:33:33.268Z,21.10
2018-10-07T07:34:06.450Z,20.00
2018-10-07T07:34:39.125Z,21.17
2018-10-07T07:35:11.759Z,21.05
2018-10-07T07:35:44.402Z,19.67
2018-10-07T07:36:17.052Z,19.95
2018-10-07T07:36:49.742Z,18.98
2018-10-07T07:37:22.487Z,19.62
2018-10-07T07:37:56.207Z,20.27
2018-10-07T07:38:28.802Z,19.42
2018-10-07T07:39:01.428Z,18.30
2018-10-07T07:39:34.038Z,17.67
2018-10-07T07:40:06.695Z,18.02
2018-10-07T07:40:39.316Z,17.52
2018-10-07T07:41:11.940Z,16.48
2018-10-07T07:41:44.527Z,17.10
2018-10-07T07:42:17.128Z,16.77
2018-10-07T07:42:49.767Z,16.67
2018-10-07T07:43:22.384Z,18.02
2018-10-07T07:43:55.023Z,18.37
2018-10-07T07:44:27.675Z,18.10
2018-10-07T07:45:00.548Z,17.20
2018-10-07T07:45:33.119Z,18.05
2018-10-07T07:46:05.687Z,17.37
2018-10-07T07:46:38.284Z,16.32
2018-10-07T07:47:10.948Z,17.23
2018-10-07T07:47:43.596Z,17.57
2018-10-07T07:48:16.223Z,17.30
2018-10-07T07:48:48.877Z,16.50
2018-10-07T07:49:21.459Z,17.73
2018-10-07T07:49:54.843Z,16.77
2018-10-07T07:50:27.433Z,17.45
2018-10-07T07:51:00.040Z,16.90
2018-10-07T07:51:32.693Z,16.85
2018-10-07T07:52:05.331Z,19.17
2018-10-07T07:52:37.965Z,17.75
2018-10-07T07:53:10.610Z,18.12
2018-10-07T07:53:43.328Z,18.85
2018-10-07T07:54:15.959Z,17.37
2018-10-07T07:54:48.588Z,18.20
2018-10-07T07:55:21.219Z,18.12
2018-10-07T07:55:54.611Z,17.07
2018-10-07T07:56:27.490Z,17.12
2018-10-07T07:57:00.073Z,18.10
2018-10-07T07:57:32.832Z,17.17
2018-10-07T07:58:05.463Z,18.50
2018-10-07T07:58:39.283Z,16.82
2018-10-07T07:59:12.111Z,16.00
2018-10-07T07:59:44.915Z,17.52
2018-10-07T08:00:17.577Z,17.90
2018-10-07T08:00:51.227Z,17.80
2018-10-07T08:01:23.913Z,16.57
2018-10-07T08:01:56.523Z,17.82
2018-10-07T08:02:29.131Z,18.00
2018-10-07T08:03:01.743Z,17.15
2018-10-07T08:03:34.393Z,17.92
2018-10-07T08:04:07.002Z,16.77
2018-10-07T08:04:39.630Z,18.23
2018-10-07T08:05:12.421Z,18.02
2018-10-07T08:05:45.028Z,17.05
2018-10-07T08:06:17.603Z,16.87
2018-10-07T08:06:50.229Z,17.92
2018-10-07T08:07:22.834Z,18.92
2018-10-07T08:07:55.444Z,17.87
2018-10-07T08:08:28.060Z,18.27
2018-10-07T08:09:00.640Z,16.15
2018-10-07T08:09:33.236Z,17.45
2018-10-07T08:10:05.893Z,16.85
2018-10-07T08:10:38.561Z,16.20
2018-10-07T08:11:11.151Z,16.60
2018-10-07T08:11:43.779Z,17.02
2018-10-07T08:12:16.355Z,15.93
2018-10-07T08:12:49.043Z,15.50
2018-10-07T08:13:21.895Z,15.43
2018-10-07T08:13:54.471Z,15.90
2018-10-07T08:14:27.068Z,16.65
2018-10-07T08:14:59.717Z,16.10
2018-10-07T08:15:32.340Z,16.75
2018-10-07T08:16:04.995Z,15.78
2018-10-07T08:16:37.629Z,17.00
2018-10-07T08:17:10.279Z,16.50
2018-10-07T08:17:42.937Z,17.55
2018-10-07T08:18:15.497Z,16.70
2018-10-07T08:18:48.081Z,15.63
2018-10-07T08:19:20.671Z,16.07
2018-10-07T08:19:53.268Z,17.55
2018-10-07T08:20:25.881Z,15.43
2018-10-07T08:20:58.512Z,15.13
2018-10-07T08:21:31.150Z,15.95
2018-10-07T08:22:03.788Z,15.75
2018-10-07T08:22:36.400Z,14.90
2018-10-07T08:23:08.999Z,14.40
2018-10-07T08:23:41.623Z,14.87
2018-10-07T08:24:14.243Z,14.53
2018-10-07T08:24:46.819Z,14.70
2018-10-07T08:25:19.434Z,13.80
2018-10-07T08:25:52.032Z,12.15
2018-10-07T08:26:24.653Z,12.40
2018-10-07T08:26:57.284Z,14.28
2018-10-07T08:27:29.858Z,12.90
2018-10-07T08:28:02.455Z,12.98
2018-10-07T08:28:35.042Z,12.30
2018-10-07T08:29:07.662Z,11.10
2018-10-07T08:29:40.362Z,11.88
2018-10-07T08:30:12.911Z,10.78
2018-10-07T08:30:45.533Z,10.70
2018-10-07T08:31:18.116Z,10.40
2018-10-07T08:31:50.721Z,9.98
2018-10-07T08:32:23.464Z,10.28
2018-10-07T08:32:56.092Z,9.28
2018-10-07T08:33:28.698Z,10.18
2018-10-07T08:34:01.322Z,9.18
2018-10-07T08:34:33.884Z,9.18
2018-10-07T08:35:06.564Z,8.80
2018-10-07T08:35:39.148Z,9.98
2018-10-07T08:36:11.763Z,9.40
2018-10-07T08:36:44.378Z,9.85
2018-10-07T08:37:16.979Z,9.60
2018-10-07T08:37:49.594Z,9.35
2018-10-07T08:38:22.441Z,8.48
2018-10-07T08:38:55.054Z,9.43
2018-10-07T08:39:27.661Z,9.83
2018-10-07T08:40:00.277Z,9.15
2018-10-07T08:40:32.920Z,8.38
2018-10-07T08:41:05.719Z,8.58
2018-10-07T08:41:38.360Z,8.48
2018-10-07T08:42:10.928Z,7.17
2018-10-07T08:42:43.517Z,8.95
2018-10-07T08:43:16.155Z,7.15
2018-10-07T08:43:48.772Z,8.43
2018-10-07T08:44:21.379Z,7.37
2018-10-07T08:44:53.952Z,7.45
2018-10-07T08:45:26.581Z,8.55
2018-10-07T08:45:59.214Z,7.45
2018-10-07T08:46:31.864Z,7.97
2018-10-07T08:47:04.513Z,7.08
2018-10-07T08:47:37.098Z,7.20
2018-10-07T08:48:09.732Z,6.58
2018-10-07T08:48:42.375Z,8.18
2018-10-07T08:49:14.991Z,6.90
2018-10-07T08:49:47.619Z,6.65
2018-10-07T08:50:20.188Z,6.53
2018-10-07T08:50:52.808Z,5.83
2018-10-07T08:51:25.469Z,6.47
2018-10-07T08:51:58.268Z,6.15
2018-10-07T08:52:30.884Z,6.62
2018-10-07T08:53:03.506Z,7.03
2018-10-07T08:53:36.112Z,5.95
2018-10-07T08:54:08.757Z,6.20
2018-10-07T08:54:41.367Z,5.80
2018-10-07T08:55:13.982Z,5.42
2018-10-07T08:55:46.555Z,6.62
2018-10-07T08:56:19.217Z,5.60
2018-10-07T08:56:51.789Z,5.35
2018-10-07T08:57:24.404Z,5.40
2018-10-07T08:57:56.987Z,5.42
2018-10-07T08:58:29.608Z,5.40
2018-10-07T08:59:02.219Z,5.40
2018-10-07T08:59:34.885Z,5.85
2018-10-07T09:00:07.523Z,5.00
2018-10-07T09:00:40.128Z,5.33
2018-10-07T09:01:12.818Z,4.87
2018-10-07T09:01:45.461Z,4.65
2018-10-07T09:02:18.060Z,5.33
2018-10-07T09:02:50.646Z,4.15
2018-10-07T09:03:23.272Z,4.58
2018-10-07T09:03:55.851Z,4.85
2018-10-07T09:04:28.456Z,4.30
2018-10-07T09:05:01.051Z,3.90
2018-10-07T09:05:33.635Z,4.62
2018-10-07T09:06:06.299Z,3.95
2018-10-07T09:06:38.904Z,4.15
2018-10-07T09:07:11.514Z,4.15
2018-10-07T09:07:44.232Z,3.40
2018-10-07T09:08:17.343Z,3.50
2018-10-07T09:08:50.044Z,3.80
2018-10-07T09:09:22.563Z,3.22
2018-10-07T09:09:55.153Z,3.35
2018-10-07T09:10:27.811Z,3.40
2018-10-07T09:11:00.393Z,3.58
2018-10-07T09:11:32.979Z,3.15
2018-10-07T09:12:05.831Z,3.25
2018-10-07T09:12:38.444Z,3.20
2018-10-07T09:13:11.047Z,3.10
2018-10-07T09:13:43.623Z,3.47
2018-10-07T09:14:16.227Z,3.92
2018-10-07T09:14:48.836Z,3.22
2018-10-07T09:15:21.481Z,3.60
2018-10-07T09:15:54.096Z,3.30
2018-10-07T09:16:26.980Z,3.00
2018-10-07T09:16:59.585Z,3.52
2018-10-07T09:17:32.222Z,2.92
2018-10-07T09:18:04.847Z,3.27
2018-10-07T09:18:37.437Z,3.02
2018-10-07T09:19:10.075Z,2.75
2018-10-07T09:19:42.690Z,2.70
2018-10-07T09:20:15.290Z,2.75
2018-10-07T09:20:47.876Z,2.85
2018-10-07T09:21:20.513Z,2.70
2018-10-07T09:21:53.099Z,2.60
2018-10-07T09:22:25.712Z,2.40
2018-10-07T09:22:58.325Z,2.70
2018-10-07T09:23:31.156Z,2.87
2018-10-07T09:24:03.787Z,2.87
2018-10-07T09:24:36.394Z,2.45
2018-10-07T09:25:09.145Z,2.62
2018-10-07T09:25:41.741Z,2.60
2018-10-07T09:26:17.640Z,2.72
2018-10-07T09:26:50.328Z,2.30
2018-10-07T09:27:22.935Z,2.87
2018-10-07T09:27:57.635Z,2.70
2018-10-07T09:28:30.292Z,2.50
2018-10-07T09:29:02.997Z,1.92
2018-10-07T09:29:36.137Z,2.50
2018-10-07T09:30:08.818Z,2.20
2018-10-07T09:30:41.436Z,2.50
2018-10-07T09:31:14.060Z,2.17
2018-10-07T09:31:46.707Z,2.30
2018-10-07T09:32:19.604Z,1.80
2018-10-07T09:32:52.354Z,2.20
2018-10-07T09:33:24.930Z,1.92
2018-10-07T09:33:57.507Z,2.62
2018-10-07T09:34:30.306Z,1.92
2018-10-07T09:35:02.951Z,2.70
2018-10-07T09:35:35.539Z,2.47
2018-10-07T09:36:08.168Z,1.80
2018-10-07T09:36:40.822Z,1.95
2018-10-07T09:37:13.599Z,2.33
2018-10-07T09:37:46.231Z,2.27
2018-10-07T09:38:18.808Z,2.40
2018-10-07T09:38:51.476Z,2.50
2018-10-07T09:39:24.367Z,2.20
2018-10-07T09:39:56.973Z,2.08
2018-10-07T09:40:29.580Z,1.85
2018-10-07T09:41:02.196Z,1.40
2018-10-07T09:41:34.793Z,2.37
2018-10-07T09:42:07.549Z,1.98
2018-10-07T09:42:40.136Z,1.50
2018-10-07T09:43:12.781Z,1.95
2018-10-07T09:43:45.371Z,1.80
2018-10-07T09:44:18.067Z,1.60
2018-10-07T09:44:50.801Z,1.40
2018-10-07T09:45:23.404Z,1.80
2018-10-07T09:45:56.011Z,2.05
2018-10-07T09:46:28.722Z,1.72
2018-10-07T09:47:01.588Z,1.55
2018-10-07T09:47:34.243Z,1.67
2018-10-07T09:48:06.911Z,1.47
2018-10-07T09:48:39.780Z,1.60
2018-10-07T09:49:12.601Z,1.62
2018-10-07T09:49:45.284Z,1.47
2018-10-07T09:50:17.917Z,1.40
2018-10-07T09:50:50.563Z,1.42
2018-10-07T09:51:23.168Z,1.60
2018-10-07T09:51:55.966Z,1.70
2018-10-07T09:52:28.611Z,1.52
2018-10-07T09:53:01.184Z,1.30
2018-10-07T09:53:34.648Z,1.22
2018-10-07T09:54:07.267Z,1.50
2018-10-07T09:54:39.901Z,1.30
2018-10-07T09:55:12.480Z,1.42
2018-10-07T09:55:45.112Z,1.27
2018-10-07T09:56:17.668Z,1.20
2018-10-07T09:56:50.247Z,1.20
2018-10-07T09:57:22.831Z,1.55
2018-10-07T09:57:55.846Z,1.30
2018-10-07T09:58:28.448Z,1.27
2018-10-07T09:59:01.042Z,1.60
2018-10-07T09:59:33.643Z,1.35
2018-10-07T10:00:06.264Z,1.30
2018-10-07T10:00:38.900Z,1.12
2018-10-07T10:01:11.529Z,1.27
2018-10-07T10:01:44.124Z,1.07
2018-10-07T10:02:16.704Z,1.10
2018-10-07T10:02:49.364Z,1.20
2018-10-07T10:03:21.952Z,0.90
2018-10-07T10:03:54.565Z,1.20
2018-10-07T10:04:27.252Z,1.37
2018-10-07T10:04:59.859Z,1.10
2018-10-07T10:05:32.448Z,1.30
2018-10-07T10:06:05.052Z,1.10
2018-10-07T10:06:37.630Z,0.95
2018-10-07T10:07:10.251Z,1.00
2018-10-07T10:07:42.881Z,1.25
2018-10-07T10:08:15.523Z,1.02
2018-10-07T10:08:48.108Z,1.07
2018-10-07T10:09:20.715Z,1.85
2018-10-07T10:09:53.292Z,1.17
2018-10-07T10:10:26.344Z,0.82
2018-10-07T10:10:58.979Z,1.05
2018-10-07T10:11:31.602Z,1.20
2018-10-07T10:12:04.202Z,1.05
2018-10-07T10:12:36.780Z,1.42
2018-10-07T10:13:09.396Z,1.05
2018-10-07T10:13:42.003Z,1.07
2018-10-07T10:14:14.616Z,1.00
2018-10-07T10:14:47.259Z,1.07
2018-10-07T10:15:19.845Z,1.10
2018-10-07T10:15:52.489Z,0.90
2018-10-07T10:16:32.620Z,1.17
2018-10-07T10:17:08.171Z,1.00
2018-10-07T10:17:45.447Z,1.07
2018-10-07T10:18:51.290Z,1.10
2018-10-07T10:19:31.215Z,1.20
2018-10-07T10:20:05.963Z,1.32
2018-10-07T10:20:50.767Z,1.55
2018-10-07T10:21:34.016Z,1.25
2018-10-07T10:22:14.045Z,1.10
2018-10-07T10:23:54.967Z,1.42
2018-10-07T10:24:38.036Z,1.67
2018-10-07T10:25:22.761Z,1.20
2018-10-07T10:26:06.627Z,1.85
2018-10-07T10:26:46.321Z,1.60
2018-10-07T10:27:27.652Z,1.70
2018-10-07T10:28:07.060Z,2.00
2018-10-07T10:28:50.125Z,2.05
2018-10-07T10:29:28.913Z,1.80
2018-10-07T10:30:04.880Z,1.80
2018-10-07T10:31:46.489Z,2.22
2018-10-07T10:32:25.520Z,1.50
2018-10-07T10:33:07.969Z,1.30
2018-10-07T10:33:46.656Z,1.00
2018-10-07T10:36:36.067Z,1.42
2018-10-07T10:37:08.817Z,1.80
2018-10-07T10:37:48.541Z,1.47
2018-10-07T10:38:28.559Z,1.65
2018-10-07T10:39:09.891Z,1.80
2018-10-07T10:39:48.232Z,1.50
2018-10-07T10:40:25.805Z,1.75
2018-10-07T10:41:01.743Z,3.40
2018-10-07T10:41:56.811Z,2.50
2018-10-07T10:43:41.010Z,1.70
2018-10-07T10:44:24.061Z,1.32
2018-10-07T10:44:59.679Z,1.32
2018-10-07T10:45:36.761Z,1.20
2018-10-07T10:46:14.591Z,1.30
2018-10-07T10:46:55.704Z,0.90
2018-10-07T10:47:36.664Z,1.00
2018-10-07T10:48:20.981Z,1.00
2018-10-07T10:50:02.616Z,0.95
2018-10-07T10:50:40.503Z,1.20
2018-10-07T10:53:28.420Z,1.10
2018-10-07T10:54:17.203Z,1.00
2018-10-07T10:54:58.769Z,1.10
2018-10-07T10:55:40.503Z,1.10
2018-10-07T10:56:21.693Z,1.00
2018-10-07T10:57:01.335Z,1.00
2018-10-07T10:57:40.748Z,0.90
2018-10-07T10:59:21.500Z,0.80
2018-10-07T11:00:06.996Z,0.90
2018-10-07T11:00:42.723Z,0.80
2018-10-07T11:01:26.852Z,0.80
2018-10-07T11:02:07.847Z,1.00
2018-10-07T11:02:49.564Z,0.90
2018-10-07T11:04:38.613Z,1.05
2018-10-07T11:05:49.784Z,0.90
2018-10-07T11:08:13.595Z,0.93
2018-10-07T11:09:02.037Z,1.10
2018-10-07T11:10:43.789Z,0.90
2018-10-07T11:11:33.921Z,1.00
2018-10-07T11:12:13.740Z,0.80
2018-10-07T11:12:54.884Z,0.75
2018-10-07T11:13:54.904Z,0.80
2018-10-07T11:15:15.166Z,1.00
2018-10-07T11:16:09.072Z,0.90
2018-10-07T11:19:09.310Z,1.00
2018-10-07T11:19:56.713Z,1.00
2018-10-07T11:23:48.497Z,1.00
2018-10-07T11:24:29.463Z,0.90
2018-10-07T11:26:19.875Z,1.10
2018-10-07T11:27:02.526Z,0.98
2018-10-07T11:28:41.066Z,0.88
2018-10-07T11:29:26.847Z,0.70
2018-10-07T11:30:16.784Z,0.98
2018-10-07T11:31:05.258Z,1.00
2018-10-07T11:31:49.578Z,0.90
2018-10-07T11:32:35.784Z,0.80
2018-10-07T11:37:31.530Z,0.72
2018-10-07T11:38:11.485Z,0.78
2018-10-07T11:39:02.487Z,1.00
2018-10-07T11:39:46.918Z,0.70
2018-10-07T11:41:31.458Z,1.00
2018-10-07T11:42:16.128Z,0.90
2018-10-07T11:43:09.017Z,0.80
2018-10-07T11:44:55.744Z,0.80
2018-10-07T11:45:31.685Z,0.80
2018-10-07T11:46:21.364Z,1.02
2018-10-07T11:47:01.296Z,0.90
2018-10-07T11:47:44.919Z,0.98
2018-10-07T11:48:26.304Z,1.00
2018-10-07T11:49:04.653Z,1.00
2018-10-07T11:49:48.643Z,0.90
2018-10-07T11:50:33.705Z,0.85
2018-10-07T11:53:45.139Z,1.00
2018-10-07T11:54:28.127Z,0.80
2018-10-07T11:55:02.967Z,0.80
2018-10-07T11:55:35.611Z,1.05
2018-10-07T11:56:08.216Z,1.00
2018-10-07T11:56:40.842Z,0.90
2018-10-07T11:57:13.505Z,1.05
2018-10-07T11:57:46.158Z,0.90
2018-10-07T11:58:18.800Z,0.90
2018-10-07T11:58:51.488Z,1.10
2018-10-07T11:59:24.141Z,1.00
2018-10-07T11:59:57.590Z,1.00
2018-10-07T12:00:30.221Z,0.80
2018-10-07T12:01:02.831Z,0.85
2018-10-07T12:01:35.818Z,1.00
2018-10-07T12:02:08.461Z,0.72
2018-10-07T12:02:41.176Z,0.95
2018-10-07T12:03:13.801Z,0.90
2018-10-07T12:03:46.691Z,1.10
2018-10-07T12:04:21.309Z,0.85
2018-10-07T12:04:54.108Z,1.10
2018-10-07T12:05:26.754Z,0.80
2018-10-07T12:05:59.364Z,1.00
2018-10-07T12:06:32.013Z,0.80
2018-10-07T12:07:05.036Z,1.00
2018-10-07T12:07:37.721Z,0.95
2018-10-07T12:08:10.437Z,0.93
2018-10-07T12:08:43.076Z,0.70
2018-10-07T12:09:15.700Z,0.80
2018-10-07T12:09:48.380Z,1.00
2018-10-07T12:10:21.361Z,0.90
2018-10-07T12:10:54.154Z,1.10
2018-10-07T12:11:26.792Z,1.00
2018-10-07T12:11:59.427Z,0.88
2018-10-07T12:12:32.063Z,0.88
2018-10-07T12:13:04.692Z,0.93
2018-10-07T12:13:37.402Z,1.02
2018-10-07T12:14:10.012Z,1.10
2018-10-07T12:14:42.728Z,0.93
2018-10-07T12:15:15.525Z,0.90
2018-10-07T12:15:48.141Z,0.80
2018-10-07T12:16:20.832Z,0.80
2018-10-07T12:16:53.511Z,1.10
2018-10-07T12:17:26.124Z,0.90
2018-10-07T12:17:58.752Z,1.00
2018-10-07T12:18:31.414Z,0.80
2018-10-07T12:19:04.065Z,0.90
2018-10-07T12:19:36.733Z,0.80
2018-10-07T12:20:09.370Z,0.70
2018-10-07T12:20:42.028Z,0.90
2018-10-07T12:21:14.680Z,0.82
2018-10-07T12:21:47.319Z,0.80
2018-10-07T12:22:19.921Z,0.90
2018-10-07T12:22:52.544Z,1.00
2018-10-07T12:23:25.168Z,0.80
2018-10-07T12:23:57.776Z,0.80
2018-10-07T12:24:30.493Z,0.93
2018-10-07T12:25:03.182Z,0.80
2018-10-07T12:25:35.904Z,0.70
2018-10-07T12:26:08.561Z,0.90
2018-10-07T12:26:41.248Z,0.80
2018-10-07T12:27:13.885Z,0.90
2018-10-07T12:27:46.531Z,0.80
2018-10-07T12:28:19.197Z,0.80
2018-10-07T12:28:51.852Z,0.80
2018-10-07T12:29:24.451Z,1.00
2018-10-07T12:29:57.109Z,0.90
2018-10-07T12:30:29.776Z,0.80
2018-10-07T12:31:02.891Z,0.93
2018-10-07T12:31:35.599Z,0.70
2018-10-07T12:32:08.886Z,1.12
2018-10-07T12:32:41.548Z,0.95
2018-10-07T12:33:14.188Z,1.02
2018-10-07T12:33:46.843Z,0.93
2018-10-07T12:34:19.459Z,0.80
2018-10-07T12:34:52.138Z,0.82
2018-10-07T12:35:24.763Z,0.88
2018-10-07T12:35:57.412Z,0.95
2018-10-07T12:36:30.102Z,1.00
2018-10-07T12:37:02.772Z,0.80
2018-10-07T12:37:35.375Z,0.90
2018-10-07T12:38:08.052Z,0.72
2018-10-07T12:38:40.740Z,1.20
2018-10-07T12:39:13.380Z,0.75
2018-10-07T12:39:45.991Z,1.07
2018-10-07T12:40:18.606Z,0.93
2018-10-07T12:40:51.291Z,0.80
2018-10-07T12:41:23.925Z,1.00
2018-10-07T12:41:56.584Z,1.00
2018-10-07T12:42:29.300Z,1.00
2018-10-07T12:43:01.910Z,0.90
2018-10-07T12:43:34.547Z,0.90
2018-10-07T12:44:07.270Z,0.78
2018-10-07T12:44:39.918Z,0.90
2018-10-07T12:45:12.764Z,0.90
2018-10-07T12:45:45.468Z,0.90
2018-10-07T12:46:18.712Z,1.37
2018-10-07T12:46:51.371Z,1.02
2018-10-07T12:47:23.981Z,1.10
2018-10-07T12:47:56.713Z,0.90
2018-10-07T12:48:29.320Z,0.80
2018-10-07T12:49:01.953Z,0.90
2018-10-07T12:49:34.584Z,0.80
2018-10-07T12:50:07.264Z,1.02
2018-10-07T12:50:39.894Z,0.80
2018-10-07T12:51:12.495Z,1.10
2018-10-07T12:51:45.110Z,0.80
2018-10-07T12:52:17.776Z,1.00
2018-10-07T12:52:51.328Z,0.80
2018-10-07T12:53:24.033Z,1.00
2018-10-07T12:53:56.695Z,0.88
2018-10-07T12:54:29.349Z,0.95
2018-10-07T12:55:01.961Z,0.90
2018-10-07T12:55:34.584Z,1.00
2018-10-07T12:56:07.207Z,0.82
2018-10-07T12:56:39.829Z,0.88
2018-10-07T12:57:12.453Z,0.95
2018-10-07T12:57:45.119Z,0.72
2018-10-07T12:58:17.764Z,1.20